createdAt,value
2019-04-03T00:00:42.748Z,981.73
2019-04-03T00:01:52.429Z,981.74
2019-04-03T00:03:05.015Z,981.71
2019-04-03T00:04:15.280Z,981.75
2019-04-03T00:05:25.365Z,981.73
2019-04-03T00:06:37.617Z,981.74
2019-04-03T00:07:47.565Z,981.71
2019-04-03T00:08:57.542Z,981.69
2019-04-03T00:10:09.657Z,981.66
2019-04-03T00:11:19.841Z,981.67
2019-04-03T00:12:29.784Z,981.69
2019-04-03T00:13:42.385Z,981.71
2019-04-03T00:14:52.556Z,981.67
2019-04-03T00:16:02.320Z,981.67
2019-04-03T00:17:14.930Z,981.67
2019-04-03T00:18:25.052Z,981.64
2019-04-03T00:19:34.974Z,981.63
2019-04-03T00:20:48.631Z,981.69
2019-04-03T00:21:59.060Z,981.71
2019-04-03T00:23:09.245Z,981.67
2019-04-03T00:24:19.205Z,981.63
2019-04-03T00:25:30.572Z,981.66
2019-04-03T00:26:40.529Z,981.66
2019-04-03T00:27:52.960Z,981.64
2019-04-03T00:29:02.957Z,981.63
2019-04-03T00:30:12.912Z,981.65
2019-04-03T00:31:24.870Z,981.59
2019-04-03T00:32:34.804Z,981.58
2019-04-03T00:33:44.903Z,981.55
2019-04-03T00:34:56.480Z,981.55
2019-04-03T00:36:06.486Z,981.59
2019-04-03T00:37:16.436Z,981.58
2019-04-03T00:38:28.196Z,981.61
2019-04-03T00:39:38.273Z,981.6
2019-04-03T00:40:48.370Z,981.58
2019-04-03T00:41:59.986Z,981.56
2019-04-03T00:43:09.910Z,981.6
2019-04-03T00:44:19.946Z,981.55
2019-04-03T00:45:31.765Z,981.58
2019-04-03T00:46:41.818Z,981.59
2019-04-03T00:47:51.802Z,981.61
2019-04-03T00:49:03.733Z,981.62
2019-04-03T00:50:13.730Z,981.59
2019-04-03T00:51:26.945Z,981.6
2019-04-03T00:52:37.365Z,981.66
2019-04-03T00:53:47.094Z,981.64
2019-04-03T00:54:58.607Z,981.62
2019-04-03T00:56:08.543Z,981.53
2019-04-03T00:57:18.568Z,981.59
2019-04-03T00:58:31.307Z,981.58
2019-04-03T00:59:41.398Z,981.58
2019-04-03T01:00:51.512Z,981.59
2019-04-03T01:02:03.820Z,981.62
2019-04-03T01:03:13.801Z,981.6
2019-04-03T01:04:23.725Z,981.59
2019-04-03T01:05:35.985Z,981.6
2019-04-03T01:06:45.952Z,981.59
2019-04-03T01:07:59.786Z,981.64
2019-04-03T01:09:09.917Z,981.59
2019-04-03T01:10:20.028Z,981.61
2019-04-03T01:11:32.231Z,981.58
2019-04-03T01:12:42.164Z,981.56
2019-04-03T01:13:52.214Z,981.53
2019-04-03T01:15:04.103Z,981.6
2019-04-03T01:16:14.386Z,981.53
2019-04-03T01:17:24.394Z,981.58
2019-04-03T01:18:37.317Z,981.58
2019-04-03T01:19:47.257Z,981.59
2019-04-03T01:20:57.192Z,981.61
2019-04-03T01:22:09.392Z,981.54
2019-04-03T01:23:19.340Z,981.49
2019-04-03T01:24:29.258Z,981.49
2019-04-03T01:25:41.220Z,981.47
2019-04-03T01:26:51.356Z,981.42
2019-04-03T01:28:01.288Z,981.43
2019-04-03T01:29:13.818Z,981.38
2019-04-03T01:30:23.751Z,981.38
2019-04-03T01:31:33.673Z,981.37
2019-04-03T01:32:46.596Z,981.37
2019-04-03T01:33:57.354Z,981.4
2019-04-03T01:35:09.139Z,981.38
2019-04-03T01:36:22.223Z,981.42
2019-04-03T01:37:32.334Z,981.37
2019-04-03T01:38:42.254Z,981.36
2019-04-03T01:39:54.742Z,981.34
2019-04-03T01:41:04.884Z,981.36
2019-04-03T01:42:14.838Z,981.36
2019-04-03T01:43:26.969Z,981.36
2019-04-03T01:44:36.892Z,981.33
2019-04-03T01:45:46.863Z,981.33
2019-04-03T01:46:59.405Z,981.35
2019-04-03T01:48:09.473Z,981.31
2019-04-03T01:49:19.393Z,981.31
2019-04-03T01:50:31.099Z,981.29
2019-04-03T01:51:41.071Z,981.25
2019-04-03T01:52:51.173Z,981.26
2019-04-03T01:54:03.612Z,981.26
2019-04-03T01:55:13.692Z,981.29
2019-04-03T01:56:23.657Z,981.27
2019-04-03T01:57:36.640Z,981.26
2019-04-03T01:58:47.045Z,981.25
2019-04-03T01:59:57.047Z,981.3
2019-04-03T02:01:09.966Z,981.28
2019-04-03T02:02:19.636Z,981.29
2019-04-03T02:03:29.561Z,981.29
2019-04-03T02:04:42.761Z,981.29
2019-04-03T02:05:53.098Z,981.3
2019-04-03T02:07:03.209Z,981.26
2019-04-03T02:08:15.466Z,981.33
2019-04-03T02:09:25.730Z,981.32
2019-04-03T02:10:35.421Z,981.3
2019-04-03T02:11:45.591Z,981.36
2019-04-03T02:12:57.281Z,981.36
2019-04-03T02:14:07.214Z,981.36
2019-04-03T02:15:17.337Z,981.35
2019-04-03T02:16:29.644Z,981.3
2019-04-03T02:17:39.567Z,981.33
2019-04-03T02:18:49.612Z,981.27
2019-04-03T02:20:01.150Z,981.23
2019-04-03T02:21:11.190Z,981.23
2019-04-03T02:22:21.275Z,981.2
2019-04-03T02:23:32.694Z,981.24
2019-04-03T02:24:42.617Z,981.25
2019-04-03T02:25:52.051Z,981.25
2019-04-03T02:27:05.058Z,981.24
2019-04-03T02:28:15.139Z,981.24
2019-04-03T02:29:25.150Z,981.24
2019-04-03T02:30:35.254Z,981.23
2019-04-03T02:31:51.653Z,981.21
2019-04-03T02:33:01.851Z,981.23
2019-04-03T02:34:12.388Z,981.24
2019-04-03T02:35:22.062Z,981.21
2019-04-03T02:36:32.087Z,981.27
2019-04-03T02:37:49.585Z,981.24
2019-04-03T02:38:59.996Z,981.23
2019-04-03T02:40:10.236Z,981.2
2019-04-03T02:41:20.552Z,981.24
2019-04-03T02:42:30.684Z,981.19
2019-04-03T02:43:46.237Z,981.18
2019-04-03T02:44:57.330Z,981.16
2019-04-03T02:46:08.103Z,981.15
2019-04-03T02:47:18.493Z,981.15
2019-04-03T02:48:28.425Z,981.18
2019-04-03T02:49:43.663Z,981.17
2019-04-03T02:50:54.222Z,981.2
2019-04-03T02:52:04.632Z,981.23
2019-04-03T02:53:15.122Z,981.2
2019-04-03T02:54:30.016Z,981.24
2019-04-03T02:55:42.420Z,981.24
2019-04-03T02:56:52.631Z,981.23
2019-04-03T02:58:02.707Z,981.22
2019-04-03T02:59:12.712Z,981.2
2019-04-03T03:00:26.059Z,981.16
2019-04-03T03:01:40.703Z,981.17
2019-04-03T03:02:50.952Z,981.19
2019-04-03T03:04:01.245Z,981.17
2019-04-03T03:05:11.424Z,981.17
2019-04-03T03:06:21.624Z,981.17
2019-04-03T03:07:36.267Z,981.16
2019-04-03T03:08:46.645Z,981.1
2019-04-03T03:09:57.020Z,981.07
2019-04-03T03:11:06.757Z,981.09
2019-04-03T03:12:16.722Z,981.09
2019-04-03T03:13:33.213Z,981.12
2019-04-03T03:14:43.996Z,981.1
2019-04-03T03:15:53.713Z,981.11
2019-04-03T03:17:04.436Z,981.17
2019-04-03T03:18:14.664Z,981.14
2019-04-03T03:19:27.462Z,981.14
2019-04-03T03:20:40.888Z,981.15
2019-04-03T03:21:51.211Z,981.14
2019-04-03T03:23:01.356Z,981.11
2019-04-03T03:24:11.194Z,981.15
2019-04-03T03:25:21.544Z,981.16
2019-04-03T03:26:37.149Z,981.19
2019-04-03T03:27:47.721Z,981.17
2019-04-03T03:29:07.962Z,981.2
2019-04-03T03:30:43.138Z,981.19
2019-04-03T03:32:18.579Z,981.18
2019-04-03T03:33:43.870Z,981.17
2019-04-03T03:35:11.487Z,981.16
2019-04-03T03:36:58.314Z,981.16
2019-04-03T03:38:15.233Z,981.15
2019-04-03T03:39:30.678Z,981.15
2019-04-03T03:40:47.048Z,981.15
2019-04-03T03:41:58.714Z,981.21
2019-04-03T03:43:09.487Z,981.23
2019-04-03T03:44:19.842Z,981.18
2019-04-03T03:45:29.921Z,981.24
2019-04-03T03:46:40.244Z,981.23
2019-04-03T03:47:50.626Z,981.21
2019-04-03T03:49:00.918Z,981.26
2019-04-03T03:50:11.557Z,981.22
2019-04-03T03:51:29.735Z,981.24
2019-04-03T03:52:40.625Z,981.23
2019-04-03T03:53:50.877Z,981.25
2019-04-03T03:55:01.521Z,981.24
2019-04-03T03:56:11.959Z,981.25
2019-04-03T03:57:22.342Z,981.22
2019-04-03T03:58:32.667Z,981.27
2019-04-03T03:59:49.336Z,981.24
2019-04-03T04:01:01.135Z,981.26
2019-04-03T04:02:11.721Z,981.25
2019-04-03T04:03:21.654Z,981.25
2019-04-03T04:04:32.036Z,981.23
2019-04-03T04:05:42.276Z,981.25
2019-04-03T04:06:57.629Z,981.26
2019-04-03T04:08:12.369Z,981.3
2019-04-03T04:09:22.755Z,981.28
2019-04-03T04:10:35.600Z,981.25
2019-04-03T04:11:46.551Z,981.24
2019-04-03T04:12:56.689Z,981.24
2019-04-03T04:14:06.696Z,981.24
2019-04-03T04:15:22.262Z,981.2
2019-04-03T04:16:37.803Z,981.22
2019-04-03T04:17:49.943Z,981.14
2019-04-03T04:19:01.193Z,981.12
2019-04-03T04:20:11.488Z,981.15
2019-04-03T04:21:21.722Z,981.17
2019-04-03T04:22:31.946Z,981.16
2019-04-03T04:23:42.180Z,981.15
2019-04-03T04:24:57.100Z,981.15
2019-04-03T04:26:08.537Z,981.19
2019-04-03T04:27:18.888Z,981.18
2019-04-03T04:28:28.866Z,981.17
2019-04-03T04:29:41.563Z,981.17
2019-04-03T04:30:52.071Z,981.12
2019-04-03T04:32:02.212Z,981.17
2019-04-03T04:33:16.919Z,981.13
2019-04-03T04:34:27.230Z,981.13
2019-04-03T04:35:37.124Z,981.11
2019-04-03T04:36:47.180Z,981.14
2019-04-03T04:38:03.227Z,981.12
2019-04-03T04:39:13.434Z,981.16
2019-04-03T04:40:23.515Z,981.12
2019-04-03T04:41:35.862Z,981.17
2019-04-03T04:42:45.784Z,981.17
2019-04-03T04:43:55.711Z,981.14
2019-04-03T04:45:05.809Z,981.18
2019-04-03T04:46:17.258Z,981.17
2019-04-03T04:47:27.227Z,981.13
2019-04-03T04:48:37.611Z,981.12
2019-04-03T04:49:47.561Z,981.1
2019-04-03T04:50:59.305Z,981.11
2019-04-03T04:52:09.226Z,981.08
2019-04-03T04:53:19.150Z,981.14
2019-04-03T04:54:32.259Z,981.12
2019-04-03T04:55:45.713Z,981.17
2019-04-03T04:56:55.860Z,981.18
2019-04-03T04:58:09.645Z,981.18
2019-04-03T04:59:21.396Z,981.17
2019-04-03T05:00:31.451Z,981.17
2019-04-03T05:01:41.621Z,981.15
2019-04-03T05:02:54.407Z,981.18
2019-04-03T05:04:07.297Z,981.18
2019-04-03T05:05:19.980Z,981.18
2019-04-03T05:06:34.276Z,981.22
2019-04-03T05:07:44.228Z,981.23
2019-04-03T05:08:54.369Z,981.22
2019-04-03T05:10:07.545Z,981.23
2019-04-03T05:11:20.664Z,981.27
2019-04-03T05:12:30.330Z,981.27
2019-04-03T05:13:46.757Z,981.31
2019-04-03T05:14:57.216Z,981.29
2019-04-03T05:16:07.410Z,981.32
2019-04-03T05:17:20.769Z,981.31
2019-04-03T05:18:32.446Z,981.31
2019-04-03T05:19:42.378Z,981.33
2019-04-03T05:20:54.428Z,981.34
2019-04-03T05:22:04.753Z,981.36
2019-04-03T05:23:14.680Z,981.4
2019-04-03T05:24:26.884Z,981.42
2019-04-03T05:25:38.858Z,981.43
2019-04-03T05:26:48.789Z,981.46
2019-04-03T05:27:59.022Z,981.43
2019-04-03T05:29:11.783Z,981.47
2019-04-03T05:30:21.703Z,981.49
2019-04-03T05:31:31.909Z,981.49
2019-04-03T05:32:44.281Z,981.46
2019-04-03T05:33:54.277Z,981.46
2019-04-03T05:35:04.214Z,981.43
2019-04-03T05:36:17.427Z,981.42
2019-04-03T05:37:28.152Z,981.43
2019-04-03T05:38:38.570Z,981.42
2019-04-03T05:39:49.073Z,981.43
2019-04-03T05:41:00.647Z,981.45
2019-04-03T05:42:10.572Z,981.47
2019-04-03T05:43:20.701Z,981.46
2019-04-03T05:44:33.836Z,981.49
2019-04-03T05:45:44.222Z,981.54
2019-04-03T05:46:54.302Z,981.55
2019-04-03T05:48:12.401Z,981.59
2019-04-03T05:49:25.642Z,981.55
2019-04-03T05:50:36.789Z,981.6
2019-04-03T05:51:47.093Z,981.59
2019-04-03T05:52:57.017Z,981.56
2019-04-03T05:54:09.576Z,981.56
2019-04-03T05:55:22.174Z,981.53
2019-04-03T05:56:31.919Z,981.54
2019-04-03T05:57:45.653Z,981.55
2019-04-03T05:58:59.122Z,981.52
2019-04-03T06:00:10.804Z,981.53
2019-04-03T06:01:20.843Z,981.58
2019-04-03T06:02:30.924Z,981.54
2019-04-03T06:03:44.795Z,981.54
2019-04-03T06:04:55.827Z,981.55
2019-04-03T06:06:13.940Z,981.57
2019-04-03T06:07:24.847Z,981.57
2019-04-03T06:08:35.323Z,981.58
2019-04-03T06:09:45.373Z,981.6
2019-04-03T06:11:02.697Z,981.58
2019-04-03T06:12:18.805Z,981.62
2019-04-03T06:13:29.490Z,981.62
2019-04-03T06:14:39.725Z,981.64
2019-04-03T06:15:53.721Z,981.65
2019-04-03T06:17:03.821Z,981.7
2019-04-03T06:18:13.993Z,981.67
2019-04-03T06:19:32.473Z,981.69
2019-04-03T06:20:47.366Z,981.71
2019-04-03T06:21:57.700Z,981.71
2019-04-03T06:23:10.370Z,981.71
2019-04-03T06:24:24.304Z,981.69
2019-04-03T06:25:34.863Z,981.72
2019-04-03T06:26:45.091Z,981.68
2019-04-03T06:27:55.337Z,981.67
2019-04-03T06:29:07.258Z,981.65
2019-04-03T06:30:20.034Z,981.67
2019-04-03T06:31:32.449Z,981.64
2019-04-03T06:32:42.662Z,981.63
2019-04-03T06:33:55.488Z,981.68
2019-04-03T06:35:07.595Z,981.69
2019-04-03T06:36:19.264Z,981.7
2019-04-03T06:37:29.198Z,981.76
2019-04-03T06:38:39.121Z,981.78
2019-04-03T06:39:49.237Z,981.73
2019-04-03T06:41:00.756Z,981.77
2019-04-03T06:42:14.042Z,981.72
2019-04-03T06:43:24.263Z,981.7
2019-04-03T06:44:37.764Z,981.71
2019-04-03T06:45:47.911Z,981.72
2019-04-03T06:47:01.562Z,981.7
2019-04-03T06:48:11.693Z,981.75
2019-04-03T06:49:21.652Z,981.73
2019-04-03T06:50:31.882Z,981.7
2019-04-03T06:51:42.184Z,981.71
2019-04-03T06:52:54.351Z,981.7
2019-04-03T06:54:07.094Z,981.72
2019-04-03T06:55:18.197Z,981.73
2019-04-03T06:56:30.698Z,981.68
2019-04-03T06:57:43.297Z,981.69
2019-04-03T06:58:53.858Z,981.68
2019-04-03T07:00:03.852Z,981.73
2019-04-03T07:01:14.210Z,981.76
2019-04-03T07:02:27.869Z,981.8
2019-04-03T07:03:40.207Z,981.76
2019-04-03T07:04:50.224Z,981.77
2019-04-03T07:06:03.394Z,981.73
2019-04-03T07:07:15.978Z,981.76
2019-04-03T07:08:42.051Z,981.75
2019-04-03T07:09:52.375Z,981.75
2019-04-03T07:11:04.518Z,981.73
2019-04-03T07:12:25.970Z,981.72
2019-04-03T07:13:36.267Z,981.77
2019-04-03T07:14:46.670Z,981.69
2019-04-03T07:15:57.157Z,981.71
2019-04-03T07:17:07.485Z,981.75
2019-04-03T07:18:17.617Z,981.75
2019-04-03T07:19:27.866Z,981.79
2019-04-03T07:20:39.746Z,981.81
2019-04-03T07:21:52.946Z,981.85
2019-04-03T07:23:05.133Z,981.84
2019-04-03T07:24:15.495Z,981.92
2019-04-03T07:25:25.733Z,981.94
2019-04-03T07:26:38.663Z,981.9
2019-04-03T07:27:48.799Z,981.97
2019-04-03T07:28:58.880Z,982.07
2019-04-03T07:30:12.600Z,982.07
2019-04-03T07:31:27.492Z,982.09
2019-04-03T07:32:37.901Z,982.14
2019-04-03T07:33:47.879Z,982.11
2019-04-03T07:35:07.554Z,982.1
2019-04-03T07:36:19.057Z,982.14
2019-04-03T07:37:29.000Z,982.15
2019-04-03T07:38:39.075Z,982.16
2019-04-03T07:39:49.915Z,982.14
2019-04-03T07:41:02.061Z,982.13
2019-04-03T07:42:12.414Z,982.09
2019-04-03T07:43:26.798Z,982.1
2019-04-03T07:44:37.481Z,982.09
2019-04-03T07:45:47.693Z,982.1
2019-04-03T07:46:57.899Z,982.08
2019-04-03T07:48:11.101Z,982.12
2019-04-03T07:49:21.337Z,982.16
2019-04-03T07:50:31.486Z,982.13
2019-04-03T07:51:46.473Z,982.1
2019-04-03T07:52:56.937Z,982.09
2019-04-03T07:54:07.359Z,982.13
2019-04-03T07:55:17.713Z,982.12
2019-04-03T07:56:31.676Z,982.1
2019-04-03T07:57:42.077Z,982.1
2019-04-03T07:58:52.288Z,982.07
2019-04-03T08:00:07.015Z,982.13
2019-04-03T08:01:18.746Z,982.14
2019-04-03T08:02:29.119Z,982.16
2019-04-03T08:03:47.730Z,982.18
2019-04-03T08:05:00.908Z,982.2
2019-04-03T08:06:11.240Z,982.24
2019-04-03T08:07:21.175Z,982.2
2019-04-03T08:08:30.909Z,982.24
2019-04-03T08:09:41.094Z,982.19
2019-04-03T08:10:51.020Z,982.15
2019-04-03T08:12:04.630Z,982.16
2019-04-03T08:13:14.762Z,982.16
2019-04-03T08:14:25.204Z,982.13
2019-04-03T08:15:35.513Z,982.09
2019-04-03T08:16:48.791Z,982.11
2019-04-03T08:18:02.743Z,982.07
2019-04-03T08:19:13.179Z,982.1
2019-04-03T08:20:26.412Z,982.09
2019-04-03T08:21:39.181Z,982.09
2019-04-03T08:22:49.365Z,982.06
2019-04-03T08:23:59.339Z,982.09
2019-04-03T08:25:12.475Z,982.12
2019-04-03T08:26:22.785Z,982.11
2019-04-03T08:27:35.196Z,982.06
2019-04-03T08:28:45.767Z,982.04
2019-04-03T08:29:55.715Z,982.06
2019-04-03T08:31:10.346Z,982.05
2019-04-03T08:32:21.075Z,982.09
2019-04-03T08:33:32.492Z,982.14
2019-04-03T08:34:43.406Z,982.17
2019-04-03T08:35:54.407Z,982.16
2019-04-03T08:37:09.439Z,982.2
2019-04-03T08:38:33.346Z,982.17
2019-04-03T08:39:48.408Z,982.12
2019-04-03T08:41:03.253Z,982.16
2019-04-03T08:42:13.958Z,982.2
2019-04-03T08:43:23.885Z,982.21
2019-04-03T08:44:37.181Z,982.18
2019-04-03T08:45:47.440Z,982.18
2019-04-03T08:46:57.656Z,982.13
2019-04-03T08:48:07.967Z,982.17
2019-04-03T08:49:20.933Z,982.15
2019-04-03T08:50:33.630Z,982.15
2019-04-03T08:51:44.375Z,982.1
2019-04-03T08:52:54.484Z,982.12
2019-04-03T08:54:04.427Z,982.09
2019-04-03T08:55:17.700Z,982.12
2019-04-03T08:56:28.296Z,982.14
2019-04-03T08:57:38.300Z,982.14
2019-04-03T08:58:56.910Z,982.15
2019-04-03T09:00:07.770Z,982.09
2019-04-03T09:01:17.880Z,982.08
2019-04-03T09:02:28.102Z,982.06
2019-04-03T09:03:38.607Z,982.05
2019-04-03T09:04:50.742Z,982.03
2019-04-03T09:06:00.937Z,982.02
2019-04-03T09:07:11.059Z,982.05
2019-04-03T09:08:21.067Z,982.01
2019-04-03T09:09:35.090Z,982.02
2019-04-03T09:10:45.917Z,982.01
2019-04-03T09:11:55.839Z,982.02
2019-04-03T09:13:16.470Z,982.04
2019-04-03T09:14:30.889Z,982.1
2019-04-03T09:15:41.151Z,982.04
2019-04-03T09:16:50.825Z,982.09
2019-04-03T09:18:05.326Z,982.1
2019-04-03T09:19:17.168Z,982.05
2019-04-03T09:20:27.803Z,982.07
2019-04-03T09:21:44.898Z,982.1
2019-04-03T09:22:59.148Z,982.08
2019-04-03T09:24:09.430Z,982.1
2019-04-03T09:25:19.381Z,982.06
2019-04-03T09:26:36.608Z,982.08
2019-04-03T09:27:47.265Z,982.07
2019-04-03T09:28:57.935Z,982.08
2019-04-03T09:30:08.435Z,982.03
2019-04-03T09:31:21.197Z,981.96
2019-04-03T09:32:31.106Z,981.86
2019-04-03T09:33:45.034Z,981.88
2019-04-03T09:34:59.036Z,981.89
2019-04-03T09:36:11.310Z,981.93
2019-04-03T09:37:21.269Z,981.92
2019-04-03T09:38:31.894Z,981.94
2019-04-03T09:39:46.483Z,981.88
2019-04-03T09:40:56.737Z,981.92
2019-04-03T09:42:07.083Z,981.9
2019-04-03T09:43:16.837Z,981.9
2019-04-03T09:44:29.551Z,981.84
2019-04-03T09:45:39.526Z,981.83
2019-04-03T09:46:49.825Z,981.8
2019-04-03T09:48:01.568Z,981.81
2019-04-03T09:49:17.583Z,981.81
2019-04-03T09:50:27.546Z,981.83
2019-04-03T09:51:37.647Z,981.84
2019-04-03T09:52:49.587Z,981.85
2019-04-03T09:54:05.238Z,981.83
2019-04-03T09:55:15.468Z,981.77
2019-04-03T09:56:25.563Z,981.78
2019-04-03T09:57:37.922Z,981.73
2019-04-03T09:58:48.186Z,981.7
2019-04-03T10:00:01.363Z,981.69
2019-04-03T10:01:17.906Z,981.68
2019-04-03T10:02:28.128Z,981.69
2019-04-03T10:03:38.385Z,981.66
2019-04-03T10:04:48.810Z,981.66
2019-04-03T10:06:01.610Z,981.62
2019-04-03T10:07:11.878Z,981.64
2019-04-03T10:08:22.211Z,981.7
2019-04-03T10:09:32.442Z,981.71
2019-04-03T10:10:49.079Z,981.68
2019-04-03T10:11:59.038Z,981.66
2019-04-03T10:13:08.961Z,981.65
2019-04-03T10:14:18.891Z,981.67
2019-04-03T10:15:31.929Z,981.64
2019-04-03T10:16:42.215Z,981.62
2019-04-03T10:17:52.581Z,981.67
2019-04-03T10:19:02.755Z,981.7
2019-04-03T10:20:17.180Z,981.69
2019-04-03T10:21:27.946Z,981.7
2019-04-03T10:22:41.728Z,981.74
2019-04-03T10:23:51.671Z,981.71
2019-04-03T10:25:06.180Z,981.69
2019-04-03T10:26:16.633Z,981.68
2019-04-03T10:27:26.862Z,981.63
2019-04-03T10:28:36.797Z,981.65
2019-04-03T10:29:55.217Z,981.63
2019-04-03T10:31:05.898Z,981.57
2019-04-03T10:32:15.957Z,981.61
2019-04-03T10:33:29.142Z,981.61
2019-04-03T10:34:41.388Z,981.61
2019-04-03T10:35:51.592Z,981.63
2019-04-03T10:37:01.813Z,981.57
2019-04-03T10:38:16.103Z,981.56
2019-04-03T10:39:28.273Z,981.61
2019-04-03T10:40:43.740Z,981.61
2019-04-03T10:41:56.162Z,981.63
2019-04-03T10:43:09.037Z,981.61
2019-04-03T10:44:19.515Z,981.61
2019-04-03T10:45:29.452Z,981.59
2019-04-03T10:46:39.953Z,981.57
2019-04-03T10:47:55.156Z,981.62
2019-04-03T10:49:06.371Z,981.63
2019-04-03T10:50:16.601Z,981.65
2019-04-03T10:51:26.796Z,981.67
2019-04-03T10:52:44.030Z,981.63
2019-04-03T10:53:57.105Z,981.6
2019-04-03T10:55:07.103Z,981.59
2019-04-03T10:56:16.800Z,981.64
2019-04-03T10:57:26.728Z,981.64
2019-04-03T10:58:42.051Z,981.65
2019-04-03T10:59:55.947Z,981.66
2019-04-03T11:01:06.477Z,981.65
2019-04-03T11:02:17.380Z,981.61
2019-04-03T11:03:27.374Z,981.6
2019-04-03T11:04:37.354Z,981.58
2019-04-03T11:05:47.292Z,981.55
2019-04-03T11:06:56.979Z,981.59
2019-04-03T11:08:07.570Z,981.54
2019-04-03T11:09:17.774Z,981.59
2019-04-03T11:10:27.643Z,981.58
2019-04-03T11:11:37.857Z,981.61
2019-04-03T11:12:50.481Z,981.62
2019-04-03T11:14:04.840Z,981.63
2019-04-03T11:15:17.160Z,981.61
2019-04-03T11:16:27.451Z,981.63
2019-04-03T11:17:39.514Z,981.6
2019-04-03T11:18:59.409Z,981.62
2019-04-03T11:20:14.350Z,981.61
2019-04-03T11:21:24.617Z,981.63
2019-04-03T11:22:40.204Z,981.63
2019-04-03T11:24:07.440Z,981.62
2019-04-03T11:25:17.617Z,981.64
2019-04-03T11:26:27.940Z,981.66
2019-04-03T11:27:42.961Z,981.67
2019-04-03T11:28:54.588Z,981.6
2019-04-03T11:30:05.400Z,981.64
2019-04-03T11:31:29.083Z,981.59
2019-04-03T11:32:48.271Z,981.59
2019-04-03T11:33:58.353Z,981.58
2019-04-03T11:35:08.770Z,981.61
2019-04-03T11:36:22.886Z,981.58
2019-04-03T11:37:38.290Z,981.57
2019-04-03T11:38:48.219Z,981.54
2019-04-03T11:40:18.045Z,981.56
2019-04-03T11:41:32.351Z,981.56
2019-04-03T11:42:42.317Z,981.56
2019-04-03T11:43:52.724Z,981.6
2019-04-03T11:45:04.628Z,981.6
2019-04-03T11:46:15.245Z,981.53
2019-04-03T11:47:25.707Z,981.52
2019-04-03T11:48:35.683Z,981.53
2019-04-03T11:49:52.056Z,981.55
2019-04-03T11:51:03.128Z,981.55
2019-04-03T11:52:13.089Z,981.5
2019-04-03T11:53:23.784Z,981.57
2019-04-03T11:54:36.943Z,981.55
2019-04-03T11:55:49.065Z,981.49
2019-04-03T11:56:59.466Z,981.49
2019-04-03T11:58:09.797Z,981.48
2019-04-03T11:59:23.630Z,981.46
2019-04-03T12:00:34.545Z,981.44
2019-04-03T12:01:44.894Z,981.4
2019-04-03T12:02:55.583Z,981.37
2019-04-03T12:04:06.092Z,981.36
2019-04-03T12:05:20.566Z,981.39
2019-04-03T12:06:31.112Z,981.34
2019-04-03T12:07:41.563Z,981.36
2019-04-03T12:08:51.726Z,981.39
2019-04-03T12:10:05.679Z,981.41
2019-04-03T12:11:16.308Z,981.42
2019-04-03T12:12:26.668Z,981.36
2019-04-03T12:13:36.784Z,981.38
2019-04-03T12:14:50.233Z,981.38
2019-04-03T12:16:00.673Z,981.38
2019-04-03T12:17:10.927Z,981.35
2019-04-03T12:18:21.947Z,981.35
2019-04-03T12:19:36.715Z,981.35
2019-04-03T12:20:49.841Z,981.37
2019-04-03T12:22:00.214Z,981.38
2019-04-03T12:23:10.504Z,981.42
2019-04-03T12:24:20.745Z,981.32
2019-04-03T12:25:33.712Z,981.33
2019-04-03T12:26:48.197Z,981.3
2019-04-03T12:28:03.133Z,981.29
2019-04-03T12:29:19.039Z,981.35
2019-04-03T12:30:31.575Z,981.3
2019-04-03T12:31:42.030Z,981.28
2019-04-03T12:32:52.410Z,981.27
2019-04-03T12:34:05.121Z,981.26
2019-04-03T12:35:15.497Z,981.25
2019-04-03T12:36:27.422Z,981.29
2019-04-03T12:37:38.148Z,981.28
2019-04-03T12:38:51.037Z,981.25
2019-04-03T12:40:03.842Z,981.24
2019-04-03T12:41:14.553Z,981.25
2019-04-03T12:42:27.937Z,981.26
2019-04-03T12:43:38.377Z,981.26
2019-04-03T12:44:52.068Z,981.27
2019-04-03T12:46:05.144Z,981.25
2019-04-03T12:47:15.085Z,981.22
2019-04-03T12:48:28.586Z,981.15
2019-04-03T12:49:38.976Z,981.19
2019-04-03T12:50:49.506Z,981.17
2019-04-03T12:52:03.546Z,981.17
2019-04-03T12:53:16.404Z,981.12
2019-04-03T12:54:27.933Z,981.11
2019-04-03T12:55:38.292Z,981.11
2019-04-03T12:56:50.928Z,981.13
2019-04-03T12:58:04.646Z,981.11
2019-04-03T12:59:15.420Z,981.09
2019-04-03T13:00:28.381Z,981.1
2019-04-03T13:01:38.953Z,981.09
2019-04-03T13:02:52.462Z,981.06
2019-04-03T13:04:03.563Z,981.02
2019-04-03T13:05:13.654Z,981.06
2019-04-03T13:06:23.982Z,981.07
2019-04-03T13:07:36.334Z,981.09
2019-04-03T13:08:48.727Z,981.1
2019-04-03T13:09:59.132Z,981.07
2019-04-03T13:11:11.938Z,981.07
2019-04-03T13:12:26.571Z,981.08
2019-04-03T13:13:38.600Z,981.05
2019-04-03T13:14:49.434Z,981.06
2019-04-03T13:15:59.776Z,981.04
2019-04-03T13:17:14.425Z,980.97
2019-04-03T13:18:24.552Z,981.04
2019-04-03T13:19:35.028Z,981.02
2019-04-03T13:20:45.555Z,981.02
2019-04-03T13:21:56.055Z,981
2019-04-03T13:23:06.657Z,980.96
2019-04-03T13:24:19.156Z,980.97
2019-04-03T13:25:29.354Z,980.98
2019-04-03T13:26:39.618Z,980.99
2019-04-03T13:27:49.984Z,980.99
2019-04-03T13:29:04.290Z,981.01
2019-04-03T13:30:17.686Z,981.04
2019-04-03T13:31:27.643Z,981.01
2019-04-03T13:32:38.279Z,981.01
2019-04-03T13:34:09.662Z,980.99
2019-04-03T13:35:20.765Z,980.96
2019-04-03T13:36:30.947Z,981.01
2019-04-03T13:37:40.946Z,981.02
2019-04-03T13:38:51.731Z,981.03
2019-04-03T13:40:07.009Z,981.02
2019-04-03T13:41:17.825Z,981.02
2019-04-03T13:42:30.489Z,981.05
2019-04-03T13:43:41.493Z,981.05
2019-04-03T13:44:56.079Z,981.03
2019-04-03T13:46:08.604Z,981.05
2019-04-03T13:47:19.552Z,981.08
2019-04-03T13:48:30.219Z,981.03
2019-04-03T13:49:41.066Z,981.03
2019-04-03T13:50:55.650Z,981.02
2019-04-03T13:52:08.899Z,981.01
2019-04-03T13:53:20.406Z,980.99
2019-04-03T13:54:32.993Z,980.96
2019-04-03T13:55:45.799Z,980.95
2019-04-03T13:56:56.295Z,980.94
2019-04-03T13:58:07.030Z,980.92
2019-04-03T13:59:17.711Z,980.93
2019-04-03T14:00:32.082Z,980.95
2019-04-03T14:01:42.588Z,980.96
2019-04-03T14:02:52.871Z,980.95
2019-04-03T14:04:05.802Z,980.98
2019-04-03T14:05:15.841Z,980.95
2019-04-03T14:06:33.928Z,980.99
2019-04-03T14:07:46.132Z,980.99
2019-04-03T14:08:56.589Z,981.02
2019-04-03T14:10:07.077Z,980.99
2019-04-03T14:11:17.482Z,981.01
2019-04-03T14:12:30.698Z,980.98
2019-04-03T14:13:47.748Z,981.01
2019-04-03T14:14:58.192Z,981.01
2019-04-03T14:16:19.691Z,981.06
2019-04-03T14:17:36.200Z,981.07
2019-04-03T14:19:02.378Z,981.08
2019-04-03T14:20:15.403Z,981.1
2019-04-03T14:21:28.749Z,981.08
2019-04-03T14:22:43.935Z,981.09
2019-04-03T14:23:55.402Z,981.11
2019-04-03T14:25:17.755Z,981.13
2019-04-03T14:26:44.241Z,981.12
2019-04-03T14:27:54.761Z,981.15
2019-04-03T14:29:08.080Z,981.17
2019-04-03T14:30:18.796Z,981.14
2019-04-03T14:31:35.475Z,981.14
2019-04-03T14:32:51.777Z,981.13
2019-04-03T14:34:02.884Z,981.12
2019-04-03T14:35:38.904Z,981.15
2019-04-03T14:37:00.938Z,981.17
2019-04-03T14:38:12.281Z,981.2
2019-04-03T14:39:22.813Z,981.18
2019-04-03T14:40:32.765Z,981.19
2019-04-03T14:41:46.460Z,981.18
2019-04-03T14:43:00.054Z,981.16
2019-04-03T14:44:10.600Z,981.19
2019-04-03T14:45:21.051Z,981.2
2019-04-03T14:46:31.434Z,981.18
2019-04-03T14:47:42.033Z,981.14
2019-04-03T14:48:57.723Z,981.15
2019-04-03T14:50:11.197Z,981.12
2019-04-03T14:51:21.796Z,981.11
2019-04-03T14:52:31.891Z,981.16
2019-04-03T14:53:42.704Z,981.18
2019-04-03T14:54:57.231Z,981.15
2019-04-03T14:56:33.191Z,981.11
2019-04-03T14:57:43.814Z,981.11
2019-04-03T14:58:58.853Z,981.11
2019-04-03T15:00:24.235Z,981.13
2019-04-03T15:01:38.789Z,981.14